createdAt,value
2018-11-27T00:00:53.885Z,11.12
2018-11-27T00:03:23.528Z,11.12
2018-11-27T00:05:53.056Z,11.14
2018-11-27T00:08:22.589Z,11.14
2018-11-27T00:10:52.065Z,11.16
2018-11-27T00:13:21.592Z,11.14
2018-11-27T00:15:51.129Z,11.17
2018-11-27T00:18:20.641Z,11.18
2018-11-27T00:20:50.152Z,11.18
2018-11-27T00:23:19.630Z,11.20
2018-11-27T00:25:49.226Z,11.22
2018-11-27T00:28:18.684Z,11.23
2018-11-27T00:30:48.216Z,11.23
2018-11-27T00:33:17.729Z,11.21
2018-11-27T00:35:47.252Z,11.22
2018-11-27T00:38:16.763Z,11.21
2018-11-27T00:40:46.252Z,11.21
2018-11-27T00:43:15.781Z,11.21
2018-11-27T00:45:45.307Z,11.21
2018-11-27T00:48:14.813Z,11.21
2018-11-27T00:50:44.345Z,11.08
2018-11-27T00:53:13.834Z,11.23
2018-11-27T00:55:43.449Z,11.22
2018-11-27T00:58:12.925Z,11.24
2018-11-27T01:00:42.436Z,11.23
2018-11-27T01:03:11.953Z,11.22
2018-11-27T01:05:41.512Z,11.21
2018-11-27T01:08:11.133Z,10.38
2018-11-27T01:10:40.720Z,11.22
2018-11-27T01:13:10.281Z,11.22
2018-11-27T01:15:39.778Z,11.21
2018-11-27T01:18:09.309Z,11.22
2018-11-27T01:20:38.820Z,11.22
2018-11-27T01:23:08.550Z,11.21
2018-11-27T01:25:38.044Z,11.21
2018-11-27T01:28:07.621Z,11.22
2018-11-27T01:30:37.148Z,11.21
2018-11-27T01:33:06.840Z,11.16
2018-11-27T01:35:36.321Z,11.12
2018-11-27T01:38:05.948Z,11.13
2018-11-27T01:40:35.495Z,11.12
2018-11-27T01:43:05.019Z,11.11
2018-11-27T01:45:34.517Z,11.10
2018-11-27T01:48:04.150Z,11.09
2018-11-27T01:50:33.646Z,11.06
2018-11-27T01:53:03.229Z,11.04
2018-11-27T01:55:32.748Z,10.99
2018-11-27T01:58:02.226Z,10.96
2018-11-27T02:00:31.764Z,10.94
2018-11-27T02:03:01.977Z,10.92
2018-11-27T02:05:31.492Z,10.92
2018-11-27T02:08:01.037Z,10.92
2018-11-27T02:10:30.541Z,10.91
2018-11-27T02:13:01.419Z,10.90
2018-11-27T02:15:30.229Z,10.89
2018-11-27T02:17:59.737Z,10.89
2018-11-27T02:20:29.274Z,10.77
2018-11-27T02:22:58.780Z,10.73
2018-11-27T02:25:29.532Z,10.67
2018-11-27T02:27:59.044Z,10.73
2018-11-27T02:30:29.053Z,10.72
2018-11-27T02:32:58.588Z,10.72
2018-11-27T02:35:28.064Z,10.72
2018-11-27T02:37:59.200Z,10.69
2018-11-27T02:40:28.742Z,10.71
2018-11-27T02:42:58.293Z,10.73
2018-11-27T02:45:27.800Z,10.74
2018-11-27T02:47:57.314Z,10.75
2018-11-27T02:50:27.137Z,10.76
2018-11-27T02:52:56.629Z,10.77
2018-11-27T02:55:27.140Z,10.77
2018-11-27T02:57:56.632Z,10.76
2018-11-27T03:00:28.240Z,10.77
2018-11-27T03:02:57.820Z,10.76
2018-11-27T03:05:32.328Z,10.76
2018-11-27T03:08:01.869Z,10.76
2018-11-27T03:10:31.443Z,10.75
2018-11-27T03:13:00.989Z,10.76
2018-11-27T03:15:30.497Z,10.74
2018-11-27T03:18:00.031Z,10.74
2018-11-27T03:20:29.560Z,10.04
2018-11-27T03:22:59.085Z,10.75
2018-11-27T03:25:28.561Z,10.76
2018-11-27T03:27:58.106Z,10.75
2018-11-27T03:30:27.765Z,10.76
2018-11-27T03:32:57.332Z,10.79
2018-11-27T03:35:26.926Z,10.78
2018-11-27T03:37:56.469Z,10.79
2018-11-27T03:40:27.420Z,10.79
2018-11-27T03:42:57.052Z,10.80
2018-11-27T03:45:26.826Z,10.80
2018-11-27T03:47:56.370Z,10.80
2018-11-27T03:50:29.706Z,10.81
2018-11-27T03:52:59.256Z,10.81
2018-11-27T03:55:28.744Z,10.83
2018-11-27T03:57:58.285Z,10.81
2018-11-27T04:00:29.721Z,10.78
2018-11-27T04:03:04.656Z,10.76
2018-11-27T04:05:34.140Z,10.75
2018-11-27T04:08:03.733Z,10.75
2018-11-27T04:10:33.227Z,10.73
2018-11-27T04:13:02.842Z,10.71
2018-11-27T04:15:32.379Z,10.72
2018-11-27T04:18:01.869Z,10.73
2018-11-27T04:20:32.299Z,10.72
2018-11-27T04:23:00.976Z,10.70
2018-11-27T04:25:30.492Z,10.71
2018-11-27T04:28:00.000Z,10.69
2018-11-27T04:30:29.534Z,10.69
2018-11-27T04:32:59.066Z,10.69
2018-11-27T04:35:28.609Z,10.69
2018-11-27T04:37:59.520Z,10.69
2018-11-27T04:40:27.681Z,10.68
2018-11-27T04:42:57.179Z,10.66
2018-11-27T04:45:27.271Z,10.63
2018-11-27T04:47:56.822Z,10.62
2018-11-27T04:50:26.470Z,10.61
2018-11-27T04:52:55.963Z,10.60
2018-11-27T04:55:25.520Z,10.59
2018-11-27T04:57:54.989Z,10.59
2018-11-27T05:00:26.357Z,10.59
2018-11-27T05:02:55.884Z,10.59
2018-11-27T05:05:25.477Z,10.60
2018-11-27T05:07:54.962Z,10.58
2018-11-27T05:10:25.196Z,10.55
2018-11-27T05:12:54.663Z,10.51
2018-11-27T05:15:25.690Z,10.49
2018-11-27T05:17:56.209Z,10.47
2018-11-27T05:20:25.813Z,10.44
2018-11-27T05:22:55.304Z,10.42
2018-11-27T05:25:24.885Z,10.40
2018-11-27T05:27:55.536Z,10.35
2018-11-27T05:30:26.076Z,10.33
2018-11-27T05:32:55.630Z,10.31
2018-11-27T05:35:28.237Z,10.29
2018-11-27T05:37:58.112Z,10.26
2018-11-27T05:40:27.625Z,10.26
2018-11-27T05:43:02.374Z,10.25
2018-11-27T05:45:32.161Z,10.25
2018-11-27T05:48:01.684Z,10.23
2018-11-27T05:50:31.265Z,10.22
2018-11-27T05:53:00.850Z,10.23
2018-11-27T05:55:30.405Z,10.21
2018-11-27T05:57:59.933Z,10.18
2018-11-27T06:00:30.485Z,10.18
2018-11-27T06:03:01.790Z,9.31
2018-11-27T06:05:31.412Z,10.21
2018-11-27T06:08:00.994Z,10.20
2018-11-27T06:10:30.506Z,10.19
2018-11-27T06:13:00.051Z,9.62
2018-11-27T06:15:29.784Z,10.15
2018-11-27T06:18:01.566Z,10.15
2018-11-27T06:20:31.339Z,10.16
2018-11-27T06:23:00.881Z,10.16
2018-11-27T06:25:31.451Z,10.18
2018-11-27T06:28:03.293Z,10.20
2018-11-27T06:30:33.968Z,10.19
2018-11-27T06:33:03.512Z,10.19
2018-11-27T06:35:40.452Z,10.17
2018-11-27T06:38:10.897Z,10.18
2018-11-27T06:40:41.468Z,10.14
2018-11-27T06:43:12.092Z,10.18
2018-11-27T06:45:42.822Z,10.19
2018-11-27T06:48:12.584Z,10.21
2018-11-27T06:50:42.203Z,10.25
2018-11-27T06:53:11.756Z,10.29
2018-11-27T06:55:41.297Z,10.33
2018-11-27T06:58:10.922Z,10.35
2018-11-27T07:00:40.580Z,10.40
2018-11-27T07:03:12.244Z,10.43
2018-11-27T07:05:41.784Z,10.47
2018-11-27T07:08:11.352Z,10.51
2018-11-27T07:10:42.356Z,10.58
2018-11-27T07:13:26.992Z,10.64
2018-11-27T07:15:56.649Z,10.70
2018-11-27T07:18:26.124Z,10.76
2018-11-27T07:20:55.692Z,10.83
2018-11-27T07:23:25.286Z,10.91
2018-11-27T07:25:54.826Z,10.99
2018-11-27T07:28:24.415Z,11.08
2018-11-27T07:30:53.984Z,11.16
2018-11-27T07:33:23.571Z,11.23
2018-11-27T07:35:53.933Z,11.27
2018-11-27T07:38:23.536Z,11.33
2018-11-27T07:40:53.564Z,11.40
2018-11-27T07:43:23.392Z,11.49
2018-11-27T07:45:55.222Z,11.61
2018-11-27T07:48:22.859Z,11.68
2018-11-27T07:50:52.408Z,11.77
2018-11-27T07:53:21.940Z,11.86
2018-11-27T07:55:51.505Z,11.97
2018-11-27T07:58:21.100Z,12.03
2018-11-27T08:00:50.637Z,11.28
2018-11-27T08:03:20.230Z,12.23
2018-11-27T08:05:49.837Z,12.32
2018-11-27T08:08:19.825Z,12.40
2018-11-27T08:10:49.809Z,12.39
2018-11-27T08:13:19.366Z,12.45
2018-11-27T08:15:49.077Z,12.51
2018-11-27T08:18:18.589Z,12.58
2018-11-27T08:20:48.227Z,12.67
2018-11-27T08:23:17.873Z,12.74
2018-11-27T08:25:47.449Z,12.82
2018-11-27T08:28:17.083Z,12.86
2018-11-27T08:30:46.737Z,12.95
2018-11-27T08:33:16.355Z,13.03
2018-11-27T08:35:45.930Z,13.11
2018-11-27T08:38:15.439Z,13.21
2018-11-27T08:40:45.046Z,13.31
2018-11-27T08:43:14.546Z,13.36
2018-11-27T08:45:44.095Z,13.44
2018-11-27T08:48:13.600Z,13.47
2018-11-27T08:50:43.128Z,13.47
2018-11-27T08:53:12.752Z,13.50
2018-11-27T08:55:43.363Z,13.55
2018-11-27T08:58:17.197Z,13.58
2018-11-27T09:00:46.755Z,13.60
2018-11-27T09:03:16.349Z,13.64
2018-11-27T09:05:45.857Z,13.64
2018-11-27T09:08:15.465Z,13.68
2018-11-27T09:10:45.908Z,13.68
2018-11-27T09:13:15.739Z,13.71
2018-11-27T09:15:45.045Z,13.69
2018-11-27T09:18:18.268Z,13.68
2018-11-27T09:20:47.771Z,13.70
2018-11-27T09:23:17.353Z,13.69
2018-11-27T09:25:46.945Z,13.65
2018-11-27T09:28:16.603Z,13.65
2018-11-27T09:30:46.364Z,13.66
2018-11-27T09:33:16.032Z,13.70
2018-11-27T09:35:45.566Z,13.69
2018-11-27T09:38:15.156Z,13.69
2018-11-27T09:40:44.700Z,13.70
2018-11-27T09:43:14.419Z,13.70
2018-11-27T09:45:44.981Z,13.68
2018-11-27T09:48:14.582Z,13.68
2018-11-27T09:50:44.262Z,13.71
2018-11-27T09:53:15.080Z,13.74
2018-11-27T09:55:44.736Z,13.77
2018-11-27T09:58:14.449Z,13.80
2018-11-27T10:00:44.023Z,13.77
2018-11-27T10:03:14.953Z,13.71
2018-11-27T10:05:44.504Z,13.70
2018-11-27T10:08:14.140Z,13.66
2018-11-27T10:10:43.668Z,13.57
2018-11-27T10:13:13.257Z,13.53
2018-11-27T10:15:42.797Z,13.51
2018-11-27T10:18:12.421Z,13.48
2018-11-27T10:20:44.417Z,13.50
2018-11-27T10:23:15.028Z,13.52
2018-11-27T10:25:44.633Z,13.54
2018-11-27T10:28:14.165Z,13.53
2018-11-27T10:30:43.855Z,13.55
2018-11-27T10:33:13.576Z,13.58
2018-11-27T10:35:51.855Z,13.64
2018-11-27T10:38:21.498Z,13.68
2018-11-27T10:40:51.086Z,13.74
2018-11-27T10:43:20.694Z,13.79
2018-11-27T10:45:50.276Z,13.85
2018-11-27T10:48:19.820Z,13.88
2018-11-27T10:50:49.416Z,13.92
2018-11-27T10:53:19.008Z,13.92
2018-11-27T10:55:48.605Z,13.95
2018-11-27T10:58:18.208Z,13.96
2018-11-27T11:00:52.829Z,14.00
2018-11-27T11:03:30.246Z,14.01
2018-11-27T11:05:59.856Z,14.06
2018-11-27T11:08:29.381Z,14.09
2018-11-27T11:10:58.902Z,14.11
2018-11-27T11:13:28.475Z,14.10
2018-11-27T11:15:58.080Z,14.13
2018-11-27T11:18:27.598Z,14.13
2018-11-27T11:20:57.199Z,14.16
2018-11-27T11:23:26.777Z,14.19
2018-11-27T11:25:56.651Z,14.24
2018-11-27T11:28:30.228Z,14.28
2018-11-27T11:30:59.809Z,14.30
2018-11-27T11:33:29.456Z,14.32
2018-11-27T11:35:59.009Z,14.33
2018-11-27T11:38:28.527Z,14.33
2018-11-27T11:40:58.068Z,14.33
2018-11-27T11:43:27.751Z,14.31
2018-11-27T11:45:57.307Z,14.31
2018-11-27T11:48:26.912Z,14.30
2018-11-27T11:50:56.473Z,14.28
2018-11-27T11:53:26.160Z,14.26
2018-11-27T11:55:55.910Z,14.23
2018-11-27T11:58:25.427Z,14.22
2018-11-27T12:00:56.093Z,14.17
2018-11-27T12:03:25.617Z,14.15
2018-11-27T12:05:55.222Z,14.14
2018-11-27T12:08:24.781Z,14.13
2018-11-27T12:10:54.316Z,14.12
2018-11-27T12:13:23.898Z,14.13
2018-11-27T12:15:53.424Z,14.14
2018-11-27T12:18:22.962Z,14.17
2018-11-27T12:20:52.590Z,14.19
2018-11-27T12:23:22.085Z,14.19
2018-11-27T12:25:51.756Z,14.20
2018-11-27T12:28:21.313Z,14.18
2018-11-27T12:30:50.909Z,14.17
2018-11-27T12:33:20.453Z,14.18
2018-11-27T12:35:50.232Z,14.18
2018-11-27T12:38:19.820Z,13.37
2018-11-27T12:40:49.361Z,14.18
2018-11-27T12:43:18.910Z,14.21
2018-11-27T12:45:48.488Z,14.21
2018-11-27T12:48:17.992Z,14.20
2018-11-27T12:50:48.701Z,14.21
2018-11-27T12:53:18.977Z,14.18
2018-11-27T12:55:50.384Z,14.18
2018-11-27T12:58:19.955Z,14.16
2018-11-27T13:00:49.556Z,14.15
2018-11-27T13:03:19.154Z,14.11
2018-11-27T13:05:48.845Z,14.12
2018-11-27T13:08:20.341Z,14.13
2018-11-27T13:10:49.926Z,14.10
2018-11-27T13:13:19.438Z,14.05
2018-11-27T13:15:49.092Z,14.05
2018-11-27T13:18:18.608Z,14.06
2018-11-27T13:20:48.156Z,14.05
2018-11-27T13:23:17.650Z,14.06
2018-11-27T13:25:47.486Z,14.06
2018-11-27T13:28:17.027Z,14.07
2018-11-27T13:31:02.917Z,14.07
2018-11-27T13:33:34.438Z,14.05
2018-11-27T13:36:04.009Z,14.05
2018-11-27T13:38:33.713Z,14.03
2018-11-27T13:41:03.262Z,14.03
2018-11-27T13:43:32.804Z,14.04
2018-11-27T13:46:02.786Z,14.04
2018-11-27T13:48:32.277Z,14.02
2018-11-27T13:51:01.829Z,14.00
2018-11-27T13:53:31.413Z,13.97
2018-11-27T13:56:00.994Z,13.96
2018-11-27T13:58:30.560Z,13.94
2018-11-27T14:01:00.404Z,13.93
2018-11-27T14:03:30.094Z,13.92
2018-11-27T14:05:59.647Z,13.90
2018-11-27T14:08:29.241Z,13.91
2018-11-27T14:10:58.736Z,13.91
2018-11-27T14:13:28.497Z,13.89
2018-11-27T14:15:58.859Z,13.86
2018-11-27T14:18:28.476Z,13.85
2018-11-27T14:21:00.286Z,13.83
2018-11-27T14:23:29.984Z,13.81
2018-11-27T14:25:59.733Z,13.83
2018-11-27T14:28:30.344Z,13.82
2018-11-27T14:30:59.904Z,13.80
2018-11-27T14:33:29.441Z,13.80
2018-11-27T14:35:59.112Z,13.79
2018-11-27T14:38:28.621Z,13.74
2018-11-27T14:40:58.189Z,13.73
2018-11-27T14:43:27.737Z,13.68
2018-11-27T14:45:57.314Z,13.68
2018-11-27T14:48:26.812Z,13.65
2018-11-27T14:50:56.413Z,13.61
2018-11-27T14:53:25.962Z,13.60
2018-11-27T14:55:55.525Z,13.57
2018-11-27T14:58:25.589Z,13.55
2018-11-27T15:00:55.168Z,13.54
2018-11-27T15:03:24.757Z,13.53
2018-11-27T15:05:54.341Z,13.53
2018-11-27T15:08:23.916Z,13.51
2018-11-27T15:10:53.402Z,13.52
2018-11-27T15:13:22.981Z,13.53
2018-11-27T15:15:52.512Z,13.52
2018-11-27T15:18:22.700Z,13.52
2018-11-27T15:20:51.642Z,13.51
2018-11-27T15:23:21.179Z,13.52
2018-11-27T15:25:50.716Z,13.52
2018-11-27T15:28:20.375Z,13.51
2018-11-27T15:30:49.913Z,13.52
2018-11-27T15:33:19.509Z,13.52
2018-11-27T15:35:48.996Z,13.52
2018-11-27T15:38:18.546Z,13.52
2018-11-27T15:40:48.059Z,13.51
2018-11-27T15:43:17.660Z,13.52
2018-11-27T15:45:47.157Z,13.53
2018-11-27T15:48:16.704Z,12.72
2018-11-27T15:50:46.212Z,13.51
2018-11-27T15:53:15.753Z,13.49
2018-11-27T15:55:45.412Z,13.49
2018-11-27T15:58:15.504Z,13.48
2018-11-27T16:00:45.274Z,13.48
2018-11-27T16:03:14.848Z,13.48
2018-11-27T16:05:45.294Z,13.46
2018-11-27T16:08:15.298Z,13.47
2018-11-27T16:10:44.804Z,13.45
2018-11-27T16:13:14.333Z,13.44
2018-11-27T16:15:43.826Z,13.44
2018-11-27T16:18:13.352Z,13.44
2018-11-27T16:20:43.040Z,13.43
2018-11-27T16:23:12.613Z,13.43
2018-11-27T16:25:42.104Z,13.43
2018-11-27T16:28:11.648Z,13.43
2018-11-27T16:30:41.153Z,13.42
2018-11-27T16:33:10.693Z,13.41
2018-11-27T16:35:40.201Z,13.39
2018-11-27T16:38:09.740Z,13.39
2018-11-27T16:40:39.965Z,13.37
2018-11-27T16:43:09.580Z,13.37
2018-11-27T16:45:39.132Z,13.36
2018-11-27T16:48:08.673Z,13.35
2018-11-27T16:50:38.209Z,13.34
2018-11-27T16:53:07.989Z,13.33
2018-11-27T16:55:37.512Z,13.32
2018-11-27T16:58:07.150Z,13.32
2018-11-27T17:00:36.642Z,13.29
2018-11-27T17:03:07.570Z,13.28
2018-11-27T17:05:40.567Z,13.27
2018-11-27T17:08:10.076Z,13.27
2018-11-27T17:10:41.332Z,13.26
2018-11-27T17:13:11.477Z,13.25
2018-11-27T17:15:41.048Z,13.24
2018-11-27T17:18:11.044Z,13.22
2018-11-27T17:20:41.896Z,13.19
2018-11-27T17:23:14.761Z,13.19
2018-11-27T17:25:44.300Z,13.16
2018-11-27T17:28:15.511Z,13.12
2018-11-27T17:30:46.881Z,13.11
2018-11-27T17:33:22.786Z,13.09
2018-11-27T17:35:52.367Z,13.09
2018-11-27T17:38:21.892Z,13.08
2018-11-27T17:40:51.760Z,13.07
2018-11-27T17:43:21.261Z,13.07
2018-11-27T17:45:50.801Z,13.04
2018-11-27T17:48:20.306Z,13.03
2018-11-27T17:50:50.793Z,13.00
2018-11-27T17:53:20.289Z,12.99
2018-11-27T17:55:49.973Z,12.95
2018-11-27T17:58:22.764Z,12.89
2018-11-27T18:00:49.524Z,12.90
2018-11-27T18:03:19.037Z,12.94
2018-11-27T18:05:48.625Z,12.92
2018-11-27T18:08:18.120Z,12.90
2018-11-27T18:10:47.682Z,12.89
2018-11-27T18:13:17.152Z,12.89
2018-11-27T18:15:46.747Z,12.90
2018-11-27T18:18:16.221Z,12.92
2018-11-27T18:20:46.324Z,12.93
2018-11-27T18:23:15.839Z,12.92
2018-11-27T18:25:45.433Z,12.91
2018-11-27T18:28:15.017Z,12.86
2018-11-27T18:30:45.665Z,12.81
2018-11-27T18:33:14.028Z,12.82
2018-11-27T18:35:43.569Z,12.83
2018-11-27T18:38:13.056Z,12.85
2018-11-27T18:40:42.573Z,12.85
2018-11-27T18:43:12.135Z,12.86
2018-11-27T18:45:41.629Z,12.88
2018-11-27T18:48:11.208Z,12.89
2018-11-27T18:50:40.721Z,12.90
2018-11-27T18:53:10.343Z,12.90
2018-11-27T18:55:39.909Z,12.90
2018-11-27T18:58:09.473Z,12.89
2018-11-27T19:00:39.243Z,12.89
2018-11-27T19:03:09.006Z,12.89
2018-11-27T19:05:38.740Z,12.89
2018-11-27T19:08:08.278Z,12.89
2018-11-27T19:10:37.793Z,12.88
2018-11-27T19:13:08.224Z,12.87
2018-11-27T19:15:47.237Z,12.87
2018-11-27T19:18:22.077Z,12.90
2018-11-27T19:20:51.657Z,12.88
2018-11-27T19:23:22.408Z,12.87
2018-11-27T19:25:51.944Z,12.86
2018-11-27T19:28:21.439Z,12.87
2018-11-27T19:30:51.361Z,12.88
2018-11-27T19:33:20.881Z,12.88
2018-11-27T19:35:50.448Z,12.87
2018-11-27T19:38:21.143Z,12.85
2018-11-27T19:40:50.989Z,12.83
2018-11-27T19:43:20.576Z,12.81
2018-11-27T19:45:50.097Z,12.75
2018-11-27T19:48:19.752Z,12.74
2018-11-27T19:50:49.335Z,12.74
2018-11-27T19:53:18.899Z,12.74
2018-11-27T19:55:48.440Z,12.72
2018-11-27T19:58:17.960Z,12.74
2018-11-27T20:00:47.472Z,12.74
2018-11-27T20:03:17.043Z,12.71
2018-11-27T20:05:46.631Z,12.70
2018-11-27T20:08:17.183Z,12.70
2018-11-27T20:10:46.737Z,12.65
2018-11-27T20:13:16.213Z,12.66
2018-11-27T20:15:45.784Z,12.65
2018-11-27T20:18:15.384Z,12.66
2018-11-27T20:20:45.102Z,12.65
2018-11-27T20:23:14.652Z,12.69
2018-11-27T20:25:44.207Z,12.70
2018-11-27T20:28:13.684Z,12.66
2018-11-27T20:30:43.262Z,12.61
2018-11-27T20:33:12.748Z,12.61
2018-11-27T20:35:42.316Z,12.62
2018-11-27T20:38:12.370Z,12.62
2018-11-27T20:40:42.288Z,12.62
2018-11-27T20:43:11.842Z,12.63
2018-11-27T20:45:41.324Z,12.64
2018-11-27T20:48:15.396Z,12.65
2018-11-27T20:50:45.719Z,12.64
2018-11-27T20:53:15.248Z,12.64
2018-11-27T20:55:44.728Z,12.65
2018-11-27T20:58:14.270Z,12.65
2018-11-27T21:00:45.169Z,12.65
2018-11-27T21:03:14.660Z,12.64
2018-11-27T21:05:44.197Z,12.66
2018-11-27T21:08:13.727Z,12.66
2018-11-27T21:10:43.392Z,12.67
2018-11-27T21:13:13.321Z,12.68
2018-11-27T21:15:43.732Z,12.68
2018-11-27T21:18:13.489Z,12.68
2018-11-27T21:20:43.864Z,12.69
2018-11-27T21:23:13.375Z,12.69
2018-11-27T21:25:42.899Z,12.67
2018-11-27T21:28:14.718Z,12.68
2018-11-27T21:30:45.000Z,12.68
2018-11-27T21:33:14.498Z,12.67
2018-11-27T21:35:44.064Z,12.68
2018-11-27T21:38:13.615Z,12.69
2018-11-27T21:40:43.172Z,12.68
2018-11-27T21:43:12.740Z,12.68
2018-11-27T21:45:42.269Z,12.68
2018-11-27T21:48:11.801Z,11.89
2018-11-27T21:50:42.304Z,12.68
2018-11-27T21:53:11.873Z,12.69
2018-11-27T21:55:42.221Z,12.66
2018-11-27T21:58:11.751Z,12.66
2018-11-27T22:00:42.420Z,12.65
2018-11-27T22:03:12.671Z,12.65
2018-11-27T22:05:42.213Z,12.63
2018-11-27T22:08:12.587Z,12.66
2018-11-27T22:10:42.408Z,12.65
2018-11-27T22:13:14.000Z,12.67
2018-11-27T22:15:44.978Z,12.70
2018-11-27T22:18:14.852Z,12.68
2018-11-27T22:20:44.373Z,12.67
2018-11-27T22:23:13.932Z,12.66
2018-11-27T22:25:43.469Z,12.67
2018-11-27T22:28:12.953Z,12.60
2018-11-27T22:30:42.476Z,12.55
2018-11-27T22:33:12.032Z,12.44
2018-11-27T22:35:41.506Z,11.66
2018-11-27T22:38:11.020Z,12.37
2018-11-27T22:40:40.501Z,12.27
2018-11-27T22:43:10.029Z,12.13
2018-11-27T22:45:40.474Z,12.03
2018-11-27T22:48:12.157Z,11.94
2018-11-27T22:50:40.901Z,11.76
2018-11-27T22:53:10.606Z,11.72
2018-11-27T22:55:40.092Z,11.69
2018-11-27T22:58:09.737Z,11.60
2018-11-27T23:00:44.529Z,11.55
2018-11-27T23:03:14.002Z,11.46
2018-11-27T23:05:43.635Z,11.45
2018-11-27T23:08:13.208Z,11.46
2018-11-27T23:10:43.889Z,11.46
2018-11-27T23:13:13.398Z,11.46
2018-11-27T23:15:42.944Z,11.46
2018-11-27T23:18:12.478Z,11.44
2018-11-27T23:20:42.012Z,11.40
2018-11-27T23:23:11.477Z,11.36
2018-11-27T23:25:41.019Z,11.27
2018-11-27T23:28:10.514Z,11.30
2018-11-27T23:30:40.349Z,11.23
2018-11-27T23:33:09.864Z,11.27
2018-11-27T23:35:39.436Z,11.25
2018-11-27T23:38:08.904Z,11.23
2018-11-27T23:40:38.424Z,11.23
2018-11-27T23:43:07.908Z,11.13
2018-11-27T23:45:37.442Z,11.06
2018-11-27T23:48:07.502Z,11.06
2018-11-27T23:50:37.057Z,11.08
2018-11-27T23:53:06.864Z,11.03
2018-11-27T23:55:36.401Z,10.92
2018-11-27T23:58:06.605Z,10.96
